sensor_id;sensor_type;location;lat;lon;timestamp;temperature;humidity
37222;DHT22;23119;51.842;-2.230;2022-08-03T00:00:27;21.00;99.90
37222;DHT22;23119;51.842;-2.230;2022-08-03T00:02:52;21.00;99.90
37222;DHT22;23119;51.842;-2.230;2022-08-03T00:05:21;21.00;99.90
37222;DHT22;23119;51.842;-2.230;2022-08-03T00:07:52;21.00;99.90
37222;DHT22;23119;51.842;-2.230;2022-08-03T00:10:20;21.00;99.90
37222;DHT22;23119;51.842;-2.230;2022-08-03T00:12:46;21.00;99.90
37222;DHT22;23119;51.842;-2.230;2022-08-03T00:15:14;21.00;99.90
37222;DHT22;23119;51.842;-2.230;2022-08-03T00:17:47;21.00;99.90
37222;DHT22;23119;51.842;-2.230;2022-08-03T00:20:15;20.90;99.90
37222;DHT22;23119;51.842;-2.230;2022-08-03T00:22:58;20.90;99.90
37222;DHT22;23119;51.842;-2.230;2022-08-03T00:25:31;20.90;99.90
37222;DHT22;23119;51.842;-2.230;2022-08-03T00:28:04;20.80;99.90
37222;DHT22;23119;51.842;-2.230;2022-08-03T00:30:40;20.80;99.90
37222;DHT22;23119;51.842;-2.230;2022-08-03T00:33:05;20.80;99.90
37222;DHT22;23119;51.842;-2.230;2022-08-03T00:35:34;20.70;99.90
37222;DHT22;23119;51.842;-2.230;2022-08-03T00:38:03;20.70;99.90
37222;DHT22;23119;51.842;-2.230;2022-08-03T00:40:33;20.70;99.90
37222;DHT22;23119;51.842;-2.230;2022-08-03T00:43:09;20.70;99.90
37222;DHT22;23119;51.842;-2.230;2022-08-03T00:45:38;20.70;99.90
37222;DHT22;23119;51.842;-2.230;2022-08-03T00:48:08;20.70;99.90
37222;DHT22;23119;51.842;-2.230;2022-08-03T00:50:38;20.70;99.90
37222;DHT22;23119;51.842;-2.230;2022-08-03T00:53:09;20.70;99.90
37222;DHT22;23119;51.842;-2.230;2022-08-03T00:55:40;20.70;99.90
37222;DHT22;23119;51.842;-2.230;2022-08-03T00:58:26;20.70;99.90
37222;DHT22;23119;51.842;-2.230;2022-08-03T01:00:55;20.70;99.90
37222;DHT22;23119;51.842;-2.230;2022-08-03T01:03:23;20.60;99.90
37222;DHT22;23119;51.842;-2.230;2022-08-03T01:05:59;20.70;99.90
37222;DHT22;23119;51.842;-2.230;2022-08-03T01:11:53;20.70;99.90
37222;DHT22;23119;51.842;-2.230;2022-08-03T01:14:32;20.70;99.90
37222;DHT22;23119;51.842;-2.230;2022-08-03T01:19:53;20.60;99.90
37222;DHT22;23119;51.842;-2.230;2022-08-03T01:30:54;20.60;99.90
37222;DHT22;23119;51.842;-2.230;2022-08-03T01:33:41;20.60;99.90
37222;DHT22;23119;51.842;-2.230;2022-08-03T01:36:13;20.50;99.90
37222;DHT22;23119;51.842;-2.230;2022-08-03T01:38:52;20.50;99.90
37222;DHT22;23119;51.842;-2.230;2022-08-03T01:41:26;20.50;99.90
37222;DHT22;23119;51.842;-2.230;2022-08-03T01:44:02;20.50;99.90
37222;DHT22;23119;51.842;-2.230;2022-08-03T01:46:31;20.50;99.90
37222;DHT22;23119;51.842;-2.230;2022-08-03T01:49:00;20.50;99.90
37222;DHT22;23119;51.842;-2.230;2022-08-03T01:51:28;20.50;99.90
37222;DHT22;23119;51.842;-2.230;2022-08-03T01:53:59;20.50;99.90
37222;DHT22;23119;51.842;-2.230;2022-08-03T01:56:28;20.50;99.90
37222;DHT22;23119;51.842;-2.230;2022-08-03T01:59:00;20.50;99.90
37222;DHT22;23119;51.842;-2.230;2022-08-03T02:01:31;20.50;99.90
37222;DHT22;23119;51.842;-2.230;2022-08-03T02:04:01;20.40;99.90
37222;DHT22;23119;51.842;-2.230;2022-08-03T02:06:31;20.40;99.90
37222;DHT22;23119;51.842;-2.230;2022-08-03T02:09:01;20.50;99.90
37222;DHT22;23119;51.842;-2.230;2022-08-03T02:11:30;20.40;99.90
37222;DHT22;23119;51.842;-2.230;2022-08-03T02:13:59;20.40;99.90
37222;DHT22;23119;51.842;-2.230;2022-08-03T02:16:37;20.40;99.90
37222;DHT22;23119;51.842;-2.230;2022-08-03T02:19:06;20.40;99.90
37222;DHT22;23119;51.842;-2.230;2022-08-03T02:21:35;20.40;99.90
37222;DHT22;23119;51.842;-2.230;2022-08-03T02:24:07;20.40;99.90
37222;DHT22;23119;51.842;-2.230;2022-08-03T02:26:37;20.40;99.90
37222;DHT22;23119;51.842;-2.230;2022-08-03T02:29:17;20.40;99.90
37222;DHT22;23119;51.842;-2.230;2022-08-03T02:31:47;20.40;99.90
37222;DHT22;23119;51.842;-2.230;2022-08-03T02:34:27;20.40;99.90
37222;DHT22;23119;51.842;-2.230;2022-08-03T02:36:59;20.40;99.90
37222;DHT22;23119;51.842;-2.230;2022-08-03T02:39:27;20.40;99.90
37222;DHT22;23119;51.842;-2.230;2022-08-03T02:42:01;20.40;99.90
37222;DHT22;23119;51.842;-2.230;2022-08-03T02:44:31;20.30;99.90
37222;DHT22;23119;51.842;-2.230;2022-08-03T02:47:06;20.40;99.90
37222;DHT22;23119;51.842;-2.230;2022-08-03T02:49:33;20.30;99.90
37222;DHT22;23119;51.842;-2.230;2022-08-03T02:52:00;20.30;99.90
37222;DHT22;23119;51.842;-2.230;2022-08-03T02:54:29;20.30;99.90
37222;DHT22;23119;51.842;-2.230;2022-08-03T02:57:05;20.30;99.90
37222;DHT22;23119;51.842;-2.230;2022-08-03T02:59:41;20.30;99.90
37222;DHT22;23119;51.842;-2.230;2022-08-03T03:02:09;20.30;99.90
37222;DHT22;23119;51.842;-2.230;2022-08-03T03:04:38;20.20;99.90
37222;DHT22;23119;51.842;-2.230;2022-08-03T03:07:07;20.20;99.90
37222;DHT22;23119;51.842;-2.230;2022-08-03T03:09:35;20.20;99.90
37222;DHT22;23119;51.842;-2.230;2022-08-03T03:12:06;20.20;99.90
37222;DHT22;23119;51.842;-2.230;2022-08-03T03:14:39;20.10;99.90
37222;DHT22;23119;51.842;-2.230;2022-08-03T03:17:13;20.10;99.90
37222;DHT22;23119;51.842;-2.230;2022-08-03T03:19:42;20.10;99.90
37222;DHT22;23119;51.842;-2.230;2022-08-03T03:22:14;20.10;99.90
37222;DHT22;23119;51.842;-2.230;2022-08-03T03:24:44;20.10;99.90
37222;DHT22;23119;51.842;-2.230;2022-08-03T03:27:13;20.00;99.90
37222;DHT22;23119;51.842;-2.230;2022-08-03T03:29:45;20.00;99.90
37222;DHT22;23119;51.842;-2.230;2022-08-03T03:32:13;20.00;99.90
37222;DHT22;23119;51.842;-2.230;2022-08-03T03:34:39;20.00;99.90
37222;DHT22;23119;51.842;-2.230;2022-08-03T03:37:08;20.00;99.90
37222;DHT22;23119;51.842;-2.230;2022-08-03T03:39:34;20.00;99.90
37222;DHT22;23119;51.842;-2.230;2022-08-03T03:42:08;20.00;99.90
37222;DHT22;23119;51.842;-2.230;2022-08-03T03:44:38;20.00;99.90
37222;DHT22;23119;51.842;-2.230;2022-08-03T03:47:12;20.00;99.90
37222;DHT22;23119;51.842;-2.230;2022-08-03T03:49:43;19.90;99.90
37222;DHT22;23119;51.842;-2.230;2022-08-03T03:52:15;20.00;99.90
37222;DHT22;23119;51.842;-2.230;2022-08-03T03:54:44;19.90;99.90
37222;DHT22;23119;51.842;-2.230;2022-08-03T03:57:10;19.90;99.90
37222;DHT22;23119;51.842;-2.230;2022-08-03T03:59:42;19.90;99.90
37222;DHT22;23119;51.842;-2.230;2022-08-03T04:02:13;19.90;99.90
37222;DHT22;23119;51.842;-2.230;2022-08-03T04:05:02;19.90;99.90
37222;DHT22;23119;51.842;-2.230;2022-08-03T04:07:57;19.90;99.90
37222;DHT22;23119;51.842;-2.230;2022-08-03T04:13:56;19.90;99.90
37222;DHT22;23119;51.842;-2.230;2022-08-03T04:16:22;19.90;99.90
37222;DHT22;23119;51.842;-2.230;2022-08-03T04:19:04;19.80;99.90
37222;DHT22;23119;51.842;-2.230;2022-08-03T04:21:32;19.80;99.90
37222;DHT22;23119;51.842;-2.230;2022-08-03T04:24:05;19.80;99.90
37222;DHT22;23119;51.842;-2.230;2022-08-03T04:26:35;19.80;99.90
37222;DHT22;23119;51.842;-2.230;2022-08-03T04:29:08;19.80;99.90
37222;DHT22;23119;51.842;-2.230;2022-08-03T04:31:44;19.90;99.90
37222;DHT22;23119;51.842;-2.230;2022-08-03T04:34:17;19.90;99.90
37222;DHT22;23119;51.842;-2.230;2022-08-03T04:36:48;19.90;99.90
37222;DHT22;23119;51.842;-2.230;2022-08-03T04:39:23;19.90;99.90
37222;DHT22;23119;51.842;-2.230;2022-08-03T04:42:00;20.90;99.90
37222;DHT22;23119;51.842;-2.230;2022-08-03T04:44:35;19.90;99.90
37222;DHT22;23119;51.842;-2.230;2022-08-03T04:47:04;19.90;99.90
37222;DHT22;23119;51.842;-2.230;2022-08-03T04:49:31;19.90;99.90
37222;DHT22;23119;51.842;-2.230;2022-08-03T04:52:03;19.90;99.90
37222;DHT22;23119;51.842;-2.230;2022-08-03T04:54:52;19.90;99.90
37222;DHT22;23119;51.842;-2.230;2022-08-03T04:57:21;19.90;99.90
37222;DHT22;23119;51.842;-2.230;2022-08-03T04:59:53;19.90;99.90
37222;DHT22;23119;51.842;-2.230;2022-08-03T05:02:24;19.90;99.90
37222;DHT22;23119;51.842;-2.230;2022-08-03T05:04:50;19.90;99.90
37222;DHT22;23119;51.842;-2.230;2022-08-03T05:07:21;19.90;99.90
37222;DHT22;23119;51.842;-2.230;2022-08-03T05:09:49;19.90;99.90
37222;DHT22;23119;51.842;-2.230;2022-08-03T05:12:20;20.00;99.90
37222;DHT22;23119;51.842;-2.230;2022-08-03T05:14:55;20.00;99.90
37222;DHT22;23119;51.842;-2.230;2022-08-03T05:17:29;20.10;99.90
37222;DHT22;23119;51.842;-2.230;2022-08-03T05:20:00;20.10;99.90
37222;DHT22;23119;51.842;-2.230;2022-08-03T05:22:33;20.20;99.90
37222;DHT22;23119;51.842;-2.230;2022-08-03T05:25:01;20.30;99.90
37222;DHT22;23119;51.842;-2.230;2022-08-03T05:27:27;20.40;99.90
37222;DHT22;23119;51.842;-2.230;2022-08-03T05:29:55;20.70;99.90
37222;DHT22;23119;51.842;-2.230;2022-08-03T05:32:29;21.10;99.90
37222;DHT22;23119;51.842;-2.230;2022-08-03T05:34:57;21.40;99.90
37222;DHT22;23119;51.842;-2.230;2022-08-03T05:37:43;21.50;99.90
37222;DHT22;23119;51.842;-2.230;2022-08-03T05:40:11;21.80;99.90
37222;DHT22;23119;51.842;-2.230;2022-08-03T05:42:42;21.90;99.90
37222;DHT22;23119;51.842;-2.230;2022-08-03T05:45:13;21.90;99.90
37222;DHT22;23119;51.842;-2.230;2022-08-03T05:47:51;21.80;99.90
37222;DHT22;23119;51.842;-2.230;2022-08-03T05:50:20;21.60;99.90
37222;DHT22;23119;51.842;-2.230;2022-08-03T05:52:57;21.60;99.90
37222;DHT22;23119;51.842;-2.230;2022-08-03T05:55:26;21.50;99.90
37222;DHT22;23119;51.842;-2.230;2022-08-03T05:57:57;22.00;99.90
37222;DHT22;23119;51.842;-2.230;2022-08-03T06:00:31;22.80;99.90
37222;DHT22;23119;51.842;-2.230;2022-08-03T06:03:06;23.30;99.90
37222;DHT22;23119;51.842;-2.230;2022-08-03T06:05:36;23.40;99.90
37222;DHT22;23119;51.842;-2.230;2022-08-03T06:08:05;23.30;99.90
37222;DHT22;23119;51.842;-2.230;2022-08-03T06:10:33;23.10;99.90
37222;DHT22;23119;51.842;-2.230;2022-08-03T06:13:07;23.00;99.90
37222;DHT22;23119;51.842;-2.230;2022-08-03T06:15:38;23.00;99.90
37222;DHT22;23119;51.842;-2.230;2022-08-03T06:18:07;23.60;99.90
37222;DHT22;23119;51.842;-2.230;2022-08-03T06:20:38;24.90;99.90
37222;DHT22;23119;51.842;-2.230;2022-08-03T06:23:09;25.90;99.90
37222;DHT22;23119;51.842;-2.230;2022-08-03T06:25:39;26.50;99.90
37222;DHT22;23119;51.842;-2.230;2022-08-03T06:28:21;26.60;99.90
37222;DHT22;23119;51.842;-2.230;2022-08-03T06:30:49;26.50;99.90
37222;DHT22;23119;51.842;-2.230;2022-08-03T06:33:15;26.20;99.90
37222;DHT22;23119;51.842;-2.230;2022-08-03T06:35:45;25.80;99.90
37222;DHT22;23119;51.842;-2.230;2022-08-03T06:38:15;25.40;99.90
37222;DHT22;23119;51.842;-2.230;2022-08-03T06:40:46;25.20;99.90
37222;DHT22;23119;51.842;-2.230;2022-08-03T06:43:14;25.00;99.90
37222;DHT22;23119;51.842;-2.230;2022-08-03T06:45:43;24.80;99.90
37222;DHT22;23119;51.842;-2.230;2022-08-03T06:48:14;24.50;99.90
37222;DHT22;23119;51.842;-2.230;2022-08-03T06:50:42;24.30;99.90
37222;DHT22;23119;51.842;-2.230;2022-08-03T06:53:14;24.10;99.90
37222;DHT22;23119;51.842;-2.230;2022-08-03T06:55:42;23.90;99.90
37222;DHT22;23119;51.842;-2.230;2022-08-03T06:58:11;23.70;99.90
37222;DHT22;23119;51.842;-2.230;2022-08-03T07:00:49;23.70;99.90
37222;DHT22;23119;51.842;-2.230;2022-08-03T07:03:15;23.70;99.90
37222;DHT22;23119;51.842;-2.230;2022-08-03T07:05:42;23.60;99.90
37222;DHT22;23119;51.842;-2.230;2022-08-03T07:08:19;23.60;99.90
37222;DHT22;23119;51.842;-2.230;2022-08-03T07:10:47;23.60;99.90
37222;DHT22;23119;51.842;-2.230;2022-08-03T07:13:13;23.50;99.90
37222;DHT22;23119;51.842;-2.230;2022-08-03T07:15:49;23.40;99.90
37222;DHT22;23119;51.842;-2.230;2022-08-03T07:18:20;23.30;99.90
37222;DHT22;23119;51.842;-2.230;2022-08-03T07:20:48;23.20;99.90
37222;DHT22;23119;51.842;-2.230;2022-08-03T07:23:20;23.20;99.90
37222;DHT22;23119;51.842;-2.230;2022-08-03T07:25:53;23.30;99.90
37222;DHT22;23119;51.842;-2.230;2022-08-03T07:28:27;23.40;99.90
37222;DHT22;23119;51.842;-2.230;2022-08-03T07:30:55;23.70;99.90
37222;DHT22;23119;51.842;-2.230;2022-08-03T07:33:24;23.80;99.90
37222;DHT22;23119;51.842;-2.230;2022-08-03T07:35:49;24.00;99.90
37222;DHT22;23119;51.842;-2.230;2022-08-03T07:38:18;24.10;99.90
37222;DHT22;23119;51.842;-2.230;2022-08-03T07:40:51;24.10;99.90
37222;DHT22;23119;51.842;-2.230;2022-08-03T07:43:20;24.20;99.90
37222;DHT22;23119;51.842;-2.230;2022-08-03T07:45:46;24.20;99.90
37222;DHT22;23119;51.842;-2.230;2022-08-03T07:48:17;24.40;99.90
37222;DHT22;23119;51.842;-2.230;2022-08-03T07:50:54;24.80;99.90
37222;DHT22;23119;51.842;-2.230;2022-08-03T07:53:26;25.10;99.90
37222;DHT22;23119;51.842;-2.230;2022-08-03T07:55:54;25.20;99.90
37222;DHT22;23119;51.842;-2.230;2022-08-03T07:58:29;25.20;99.90
37222;DHT22;23119;51.842;-2.230;2022-08-03T08:00:57;25.10;99.90
37222;DHT22;23119;51.842;-2.230;2022-08-03T08:03:31;25.00;99.90
37222;DHT22;23119;51.842;-2.230;2022-08-03T08:05:56;24.80;99.90
37222;DHT22;23119;51.842;-2.230;2022-08-03T08:08:27;24.60;99.90
37222;DHT22;23119;51.842;-2.230;2022-08-03T08:11:02;24.30;99.90
37222;DHT22;23119;51.842;-2.230;2022-08-03T08:13:40;24.20;99.90
37222;DHT22;23119;51.842;-2.230;2022-08-03T08:16:10;24.00;99.90
37222;DHT22;23119;51.842;-2.230;2022-08-03T08:18:39;23.90;99.90
37222;DHT22;23119;51.842;-2.230;2022-08-03T08:21:10;23.80;99.90
37222;DHT22;23119;51.842;-2.230;2022-08-03T08:23:38;23.70;99.90
37222;DHT22;23119;51.842;-2.230;2022-08-03T08:26:10;23.60;99.90
37222;DHT22;23119;51.842;-2.230;2022-08-03T08:28:38;23.60;99.90
37222;DHT22;23119;51.842;-2.230;2022-08-03T08:31:04;23.80;99.90
37222;DHT22;23119;51.842;-2.230;2022-08-03T08:33:35;23.90;99.90
37222;DHT22;23119;51.842;-2.230;2022-08-03T08:36:01;23.90;99.90
37222;DHT22;23119;51.842;-2.230;2022-08-03T08:38:36;23.80;99.90
37222;DHT22;23119;51.842;-2.230;2022-08-03T08:41:05;23.80;99.90
37222;DHT22;23119;51.842;-2.230;2022-08-03T08:43:40;23.80;99.90
37222;DHT22;23119;51.842;-2.230;2022-08-03T08:46:11;23.90;99.90
37222;DHT22;23119;51.842;-2.230;2022-08-03T08:48:47;24.10;99.90
37222;DHT22;23119;51.842;-2.230;2022-08-03T08:51:15;24.40;99.90
37222;DHT22;23119;51.842;-2.230;2022-08-03T08:53:53;24.70;99.90
37222;DHT22;23119;51.842;-2.230;2022-08-03T08:56:38;25.10;99.90
37222;DHT22;23119;51.842;-2.230;2022-08-03T08:59:06;25.80;99.90
37222;DHT22;23119;51.842;-2.230;2022-08-03T09:01:36;26.30;99.90
37222;DHT22;23119;51.842;-2.230;2022-08-03T09:04:05;26.70;99.90
37222;DHT22;23119;51.842;-2.230;2022-08-03T09:06:41;27.00;99.90
37222;DHT22;23119;51.842;-2.230;2022-08-03T09:09:10;27.10;99.90
37222;DHT22;23119;51.842;-2.230;2022-08-03T09:11:44;27.10;99.90
37222;DHT22;23119;51.842;-2.230;2022-08-03T09:14:12;27.10;99.90
37222;DHT22;23119;51.842;-2.230;2022-08-03T09:16:57;27.40;99.90
37222;DHT22;23119;51.842;-2.230;2022-08-03T09:19:33;27.50;99.90
37222;DHT22;23119;51.842;-2.230;2022-08-03T09:22:23;27.60;99.90
37222;DHT22;23119;51.842;-2.230;2022-08-03T09:24:58;27.80;99.90
37222;DHT22;23119;51.842;-2.230;2022-08-03T09:27:26;27.90;99.90
37222;DHT22;23119;51.842;-2.230;2022-08-03T09:29:56;28.20;99.90
37222;DHT22;23119;51.842;-2.230;2022-08-03T09:32:27;28.40;99.90
37222;DHT22;23119;51.842;-2.230;2022-08-03T09:34:52;28.70;99.90
37222;DHT22;23119;51.842;-2.230;2022-08-03T09:37:36;28.90;99.90
37222;DHT22;23119;51.842;-2.230;2022-08-03T09:40:05;29.10;99.90
37222;DHT22;23119;51.842;-2.230;2022-08-03T09:42:34;29.00;99.90
37222;DHT22;23119;51.842;-2.230;2022-08-03T09:45:09;28.80;99.90
37222;DHT22;23119;51.842;-2.230;2022-08-03T09:47:52;28.50;99.90
37222;DHT22;23119;51.842;-2.230;2022-08-03T09:50:21;28.20;99.90
37222;DHT22;23119;51.842;-2.230;2022-08-03T09:52:49;28.00;99.90
37222;DHT22;23119;51.842;-2.230;2022-08-03T09:55:21;27.80;99.90
37222;DHT22;23119;51.842;-2.230;2022-08-03T09:57:58;27.60;99.90
37222;DHT22;23119;51.842;-2.230;2022-08-03T10:00:31;27.40;99.90
37222;DHT22;23119;51.842;-2.230;2022-08-03T10:03:03;27.10;99.90
37222;DHT22;23119;51.842;-2.230;2022-08-03T10:05:33;26.80;99.90
37222;DHT22;23119;51.842;-2.230;2022-08-03T10:08:14;26.40;99.90
37222;DHT22;23119;51.842;-2.230;2022-08-03T10:10:49;26.10;99.90
37222;DHT22;23119;51.842;-2.230;2022-08-03T10:13:17;26.20;99.90
37222;DHT22;23119;51.842;-2.230;2022-08-03T10:15:46;26.30;99.90
37222;DHT22;23119;51.842;-2.230;2022-08-03T10:18:14;26.30;99.90
37222;DHT22;23119;51.842;-2.230;2022-08-03T10:20:48;26.20;99.90
37222;DHT22;23119;51.842;-2.230;2022-08-03T10:23:18;26.10;99.90
37222;DHT22;23119;51.842;-2.230;2022-08-03T10:25:57;25.90;99.90
37222;DHT22;23119;51.842;-2.230;2022-08-03T10:28:24;25.80;99.90
37222;DHT22;23119;51.842;-2.230;2022-08-03T10:30:52;26.00;99.90
37222;DHT22;23119;51.842;-2.230;2022-08-03T10:33:23;26.20;99.90
37222;DHT22;23119;51.842;-2.230;2022-08-03T10:35:55;26.30;99.90
37222;DHT22;23119;51.842;-2.230;2022-08-03T10:38:34;26.40;99.90
37222;DHT22;23119;51.842;-2.230;2022-08-03T10:41:02;26.60;99.90
37222;DHT22;23119;51.842;-2.230;2022-08-03T10:43:44;26.90;99.90
37222;DHT22;23119;51.842;-2.230;2022-08-03T10:46:17;27.10;99.90
37222;DHT22;23119;51.842;-2.230;2022-08-03T10:48:44;27.10;99.90
37222;DHT22;23119;51.842;-2.230;2022-08-03T10:51:10;27.10;99.90
37222;DHT22;23119;51.842;-2.230;2022-08-03T10:53:41;26.90;99.90
37222;DHT22;23119;51.842;-2.230;2022-08-03T11:02:15;26.30;99.90
37222;DHT22;23119;51.842;-2.230;2022-08-03T11:04:42;26.20;99.90
37222;DHT22;23119;51.842;-2.230;2022-08-03T11:07:22;26.10;99.90
37222;DHT22;23119;51.842;-2.230;2022-08-03T11:09:55;25.90;99.90
37222;DHT22;23119;51.842;-2.230;2022-08-03T11:12:33;25.90;99.90
37222;DHT22;23119;51.842;-2.230;2022-08-03T11:15:06;26.00;99.90
37222;DHT22;23119;51.842;-2.230;2022-08-03T11:17:33;26.10;99.90
37222;DHT22;23119;51.842;-2.230;2022-08-03T11:20:06;26.40;99.90
37222;DHT22;23119;51.842;-2.230;2022-08-03T11:22:49;26.70;99.90
37222;DHT22;23119;51.842;-2.230;2022-08-03T11:25:18;26.90;99.60
37222;DHT22;23119;51.842;-2.230;2022-08-03T11:27:46;27.20;99.50
37222;DHT22;23119;51.842;-2.230;2022-08-03T11:43:02;28.20;98.10
37222;DHT22;23119;51.842;-2.230;2022-08-03T11:45:36;28.40;98.00
37222;DHT22;23119;51.842;-2.230;2022-08-03T11:48:13;28.40;97.10
37222;DHT22;23119;51.842;-2.230;2022-08-03T11:50:42;28.50;96.90
37222;DHT22;23119;51.842;-2.230;2022-08-03T11:53:14;28.50;97.10
37222;DHT22;23119;51.842;-2.230;2022-08-03T11:55:41;28.40;96.80
37222;DHT22;23119;51.842;-2.230;2022-08-03T11:58:15;28.40;96.40
37222;DHT22;23119;51.842;-2.230;2022-08-03T12:00:41;28.30;95.90
37222;DHT22;23119;51.842;-2.230;2022-08-03T12:03:12;28.30;96.50
37222;DHT22;23119;51.842;-2.230;2022-08-03T12:05:57;28.10;96.20
37222;DHT22;23119;51.842;-2.230;2022-08-03T12:10:52;28.20;96.00
37222;DHT22;23119;51.842;-2.230;2022-08-03T12:13:28;28.20;96.00
37222;DHT22;23119;51.842;-2.230;2022-08-03T12:16:01;28.40;95.30
37222;DHT22;23119;51.842;-2.230;2022-08-03T12:18:27;28.50;95.80
37222;DHT22;23119;51.842;-2.230;2022-08-03T12:21:06;28.70;95.70
37222;DHT22;23119;51.842;-2.230;2022-08-03T12:23:34;28.70;95.20
37222;DHT22;23119;51.842;-2.230;2022-08-03T12:26:02;28.70;95.10
37222;DHT22;23119;51.842;-2.230;2022-08-03T12:28:33;28.60;95.10
37222;DHT22;23119;51.842;-2.230;2022-08-03T12:31:07;28.50;95.20
37222;DHT22;23119;51.842;-2.230;2022-08-03T12:34:04;28.50;95.20
37222;DHT22;23119;51.842;-2.230;2022-08-03T12:36:51;28.50;94.40
37222;DHT22;23119;51.842;-2.230;2022-08-03T12:39:17;28.30;95.00
37222;DHT22;23119;51.842;-2.230;2022-08-03T12:41:52;28.40;95.30
37222;DHT22;23119;51.842;-2.230;2022-08-03T12:44:31;28.70;95.30
37222;DHT22;23119;51.842;-2.230;2022-08-03T12:46:58;28.90;94.70
37222;DHT22;23119;51.842;-2.230;2022-08-03T12:49:24;29.00;94.50
37222;DHT22;23119;51.842;-2.230;2022-08-03T12:54:20;28.90;94.30
37222;DHT22;23119;51.842;-2.230;2022-08-03T12:57:16;28.90;94.40
37222;DHT22;23119;51.842;-2.230;2022-08-03T12:59:43;28.80;93.70
37222;DHT22;23119;51.842;-2.230;2022-08-03T13:02:21;28.80;94.10
37222;DHT22;23119;51.842;-2.230;2022-08-03T13:04:48;28.70;93.90
37222;DHT22;23119;51.842;-2.230;2022-08-03T13:07:17;28.60;94.00
37222;DHT22;23119;51.842;-2.230;2022-08-03T13:12:44;28.20;94.00
37222;DHT22;23119;51.842;-2.230;2022-08-03T13:15:08;28.10;93.40
37222;DHT22;23119;51.842;-2.230;2022-08-03T13:17:34;28.00;94.10
37222;DHT22;23119;51.842;-2.230;2022-08-03T13:20:00;28.10;94.20
37222;DHT22;23119;51.842;-2.230;2022-08-03T13:22:29;28.40;94.20
37222;DHT22;23119;51.842;-2.230;2022-08-03T13:24:56;28.30;93.90
37222;DHT22;23119;51.842;-2.230;2022-08-03T13:27:26;28.20;93.70
37222;DHT22;23119;51.842;-2.230;2022-08-03T13:29:57;28.20;93.50
37222;DHT22;23119;51.842;-2.230;2022-08-03T13:32:28;28.10;93.50
37222;DHT22;23119;51.842;-2.230;2022-08-03T13:34:59;28.10;93.40
37222;DHT22;23119;51.842;-2.230;2022-08-03T13:37:27;28.20;93.60
37222;DHT22;23119;51.842;-2.230;2022-08-03T13:39:53;28.20;93.10
37222;DHT22;23119;51.842;-2.230;2022-08-03T13:42:19;28.20;93.30
37222;DHT22;23119;51.842;-2.230;2022-08-03T13:44:49;28.30;93.50
37222;DHT22;23119;51.842;-2.230;2022-08-03T13:47:15;28.50;93.50
37222;DHT22;23119;51.842;-2.230;2022-08-03T13:49:43;28.80;93.30
37222;DHT22;23119;51.842;-2.230;2022-08-03T13:52:09;29.00;92.80
37222;DHT22;23119;51.842;-2.230;2022-08-03T13:54:37;29.10;92.30
37222;DHT22;23119;51.842;-2.230;2022-08-03T13:57:03;29.10;92.10
37222;DHT22;23119;51.842;-2.230;2022-08-03T13:59:32;29.00;92.30
37222;DHT22;23119;51.842;-2.230;2022-08-03T14:01:57;29.00;92.30
37222;DHT22;23119;51.842;-2.230;2022-08-03T14:04:23;28.90;92.10
37222;DHT22;23119;51.842;-2.230;2022-08-03T14:06:49;28.80;92.00
37222;DHT22;23119;51.842;-2.230;2022-08-03T14:09:16;28.80;92.00
37222;DHT22;23119;51.842;-2.230;2022-08-03T14:11:43;28.80;91.50
37222;DHT22;23119;51.842;-2.230;2022-08-03T14:14:09;28.80;91.80
37222;DHT22;23119;51.842;-2.230;2022-08-03T14:16:43;28.70;91.70
37222;DHT22;23119;51.842;-2.230;2022-08-03T14:19:11;28.70;91.70
37222;DHT22;23119;51.842;-2.230;2022-08-03T14:21:37;28.70;91.60
37222;DHT22;23119;51.842;-2.230;2022-08-03T14:24:03;28.70;91.40
37222;DHT22;23119;51.842;-2.230;2022-08-03T14:26:29;28.70;91.30
37222;DHT22;23119;51.842;-2.230;2022-08-03T14:29:03;28.60;91.40
37222;DHT22;23119;51.842;-2.230;2022-08-03T14:31:32;28.70;91.10
37222;DHT22;23119;51.842;-2.230;2022-08-03T14:33:58;28.60;91.30
37222;DHT22;23119;51.842;-2.230;2022-08-03T14:36:33;28.60;91.10
37222;DHT22;23119;51.842;-2.230;2022-08-03T14:38:58;28.50;89.60
37222;DHT22;23119;51.842;-2.230;2022-08-03T14:41:24;28.50;90.50
37222;DHT22;23119;51.842;-2.230;2022-08-03T14:43:50;28.40;89.90
37222;DHT22;23119;51.842;-2.230;2022-08-03T14:46:16;28.40;89.60
37222;DHT22;23119;51.842;-2.230;2022-08-03T14:48:42;28.30;89.40
37222;DHT22;23119;51.842;-2.230;2022-08-03T14:51:07;28.20;89.60
37222;DHT22;23119;51.842;-2.230;2022-08-03T14:53:36;28.30;89.80
37222;DHT22;23119;51.842;-2.230;2022-08-03T14:56:02;28.20;89.70
37222;DHT22;23119;51.842;-2.230;2022-08-03T14:58:45;28.30;89.30
37222;DHT22;23119;51.842;-2.230;2022-08-03T15:01:14;28.30;89.10
37222;DHT22;23119;51.842;-2.230;2022-08-03T15:03:47;28.20;88.70
37222;DHT22;23119;51.842;-2.230;2022-08-03T15:06:24;28.10;88.30
37222;DHT22;23119;51.842;-2.230;2022-08-03T15:09:10;27.90;88.50
37222;DHT22;23119;51.842;-2.230;2022-08-03T15:11:38;27.80;87.70
37222;DHT22;23119;51.842;-2.230;2022-08-03T15:14:04;27.70;88.50
37222;DHT22;23119;51.842;-2.230;2022-08-03T15:16:37;27.70;88.90
37222;DHT22;23119;51.842;-2.230;2022-08-03T15:19:05;27.70;89.10
37222;DHT22;23119;51.842;-2.230;2022-08-03T15:21:31;27.70;89.50
37222;DHT22;23119;51.842;-2.230;2022-08-03T15:23:57;27.80;89.70
37222;DHT22;23119;51.842;-2.230;2022-08-03T15:26:25;27.80;89.90
37222;DHT22;23119;51.842;-2.230;2022-08-03T15:28:54;27.80;89.60
37222;DHT22;23119;51.842;-2.230;2022-08-03T15:31:23;27.80;89.40
37222;DHT22;23119;51.842;-2.230;2022-08-03T15:33:53;27.70;89.20
37222;DHT22;23119;51.842;-2.230;2022-08-03T15:36:25;27.70;89.40
37222;DHT22;23119;51.842;-2.230;2022-08-03T15:38:51;27.60;89.00
37222;DHT22;23119;51.842;-2.230;2022-08-03T15:41:17;27.50;89.00
37222;DHT22;23119;51.842;-2.230;2022-08-03T15:43:51;27.30;89.30
37222;DHT22;23119;51.842;-2.230;2022-08-03T15:46:20;27.30;89.50
37222;DHT22;23119;51.842;-2.230;2022-08-03T15:48:46;27.20;89.30
37222;DHT22;23119;51.842;-2.230;2022-08-03T15:51:19;27.20;89.60
37222;DHT22;23119;51.842;-2.230;2022-08-03T15:53:48;27.20;89.30
37222;DHT22;23119;51.842;-2.230;2022-08-03T15:56:14;27.30;89.80
37222;DHT22;23119;51.842;-2.230;2022-08-03T15:58:42;27.20;89.60
37222;DHT22;23119;51.842;-2.230;2022-08-03T16:01:11;27.10;89.60
37222;DHT22;23119;51.842;-2.230;2022-08-03T16:03:39;27.10;89.80
37222;DHT22;23119;51.842;-2.230;2022-08-03T16:06:06;27.00;89.80
37222;DHT22;23119;51.842;-2.230;2022-08-03T16:08:32;27.00;89.90
37222;DHT22;23119;51.842;-2.230;2022-08-03T16:10:59;27.00;89.20
37222;DHT22;23119;51.842;-2.230;2022-08-03T16:13:25;27.10;89.30
37222;DHT22;23119;51.842;-2.230;2022-08-03T16:15:51;27.20;89.30
37222;DHT22;23119;51.842;-2.230;2022-08-03T16:18:22;27.20;89.50
37222;DHT22;23119;51.842;-2.230;2022-08-03T16:20:51;27.10;88.40
37222;DHT22;23119;51.842;-2.230;2022-08-03T16:23:17;27.00;88.70